Time;durP1;ratioP1;P1;durP2;ratioP2;P2;SDS_P1;SDS_P2;PMS_P1;PMS_P2;Temp;Humidity;BMP_temperature;BMP_pressure;BME280_temperature;BME280_humidity;BME280_pressure;Samples;Min_cycle;Max_cycle;Signal;HPM_P1;HPM_P2
2023/12/28 00:00:22;;;;;;;13.68;2.40;;;7.30;99.90;;;;;;5113254;27;20023;-77
2023/12/28 00:02:48;;;;;;;12.57;2.03;;;7.30;99.90;;;;;;5131542;27;20358;-78
2023/12/28 00:05:13;;;;;;;7.15;1.88;;;7.30;99.90;;;;;;5132007;27;20026;-77
2023/12/28 00:07:39;;;;;;;9.38;2.15;;;7.40;99.90;;;;;;5127528;27;20429;-78
2023/12/28 00:10:05;;;;;;;10.70;2.03;;;7.40;99.90;;;;;;5109715;27;20020;-78
2023/12/28 00:12:31;;;;;;;6.35;1.40;;;7.40;99.90;;;;;;5110030;28;20027;-78
2023/12/28 00:14:56;;;;;;;7.80;2.50;;;7.40;99.90;;;;;;5114504;27;20123;-77
2023/12/28 00:17:22;;;;;;;7.55;1.52;;;7.40;99.90;;;;;;5120894;27;20458;-77
2023/12/28 00:19:48;;;;;;;7.93;1.35;;;7.50;99.90;;;;;;5128679;27;20034;-78
2023/12/28 00:22:13;;;;;;;8.48;1.77;;;7.50;99.90;;;;;;5131271;27;20185;-77
2023/12/28 00:24:39;;;;;;;6.43;1.63;;;7.50;99.90;;;;;;5131091;27;20020;-78
2023/12/28 00:27:05;;;;;;;5.88;1.50;;;7.50;99.90;;;;;;5130292;27;20428;-79
2023/12/28 00:29:32;;;;;;;6.07;1.25;;;7.60;99.90;;;;;;5112700;27;20015;-77
2023/12/28 00:31:59;;;;;;;7.32;1.08;;;7.50;99.90;;;;;;5122697;27;20059;-78
2023/12/28 00:34:25;;;;;;;5.32;1.00;;;7.50;99.90;;;;;;5131149;27;20474;-77
2023/12/28 00:36:50;;;;;;;5.00;1.23;;;7.50;99.90;;;;;;5112389;27;20104;-77
2023/12/28 00:39:16;;;;;;;2.20;0.77;;;7.40;99.90;;;;;;5113022;27;20043;-77
2023/12/28 00:41:42;;;;;;;4.63;0.93;;;7.50;99.90;;;;;;5131426;27;20019;-79
2023/12/28 00:44:09;;;;;;;4.47;0.85;;;7.40;99.90;;;;;;5131739;27;20106;-78
2023/12/28 00:46:35;;;;;;;3.78;1.02;;;7.40;99.90;;;;;;5131413;27;20064;-77
2023/12/28 00:49:01;;;;;;;3.03;1.00;;;7.30;99.90;;;;;;5131323;27;20053;-76
2023/12/28 00:51:27;;;;;;;3.63;0.80;;;7.30;99.90;;;;;;5131799;27;20015;-78
2023/12/28 00:53:52;;;;;;;7.20;1.13;;;7.20;99.90;;;;;;5131067;27;20363;-77
2023/12/28 00:56:20;;;;;;;2.28;0.90;;;7.20;99.90;;;;;;5131646;27;20019;-78
2023/12/28 00:58:46;;;;;;;3.25;0.65;;;7.20;99.90;;;;;;5130758;27;20039;-78
2023/12/28 01:01:12;;;;;;;9.73;1.95;;;7.20;99.90;;;;;;5131390;28;20023;-78
2023/12/28 01:03:38;;;;;;;8.50;1.33;;;7.10;99.90;;;;;;5132321;28;20449;-79
2023/12/28 01:06:08;;;;;;;4.90;1.08;;;7.20;99.90;;;;;;5131607;28;20039;-79
2023/12/28 01:08:34;;;;;;;4.43;1.02;;;7.20;99.90;;;;;;5113435;28;20030;-79
2023/12/28 01:11:01;;;;;;;12.20;1.85;;;7.20;99.90;;;;;;5131055;28;20026;-79
2023/12/28 01:13:28;;;;;;;5.70;1.58;;;7.30;99.90;;;;;;5132236;28;20034;-78
2023/12/28 01:15:55;;;;;;;5.50;1.10;;;7.30;99.90;;;;;;5131391;28;20027;-80
2023/12/28 01:18:21;;;;;;;12.10;1.58;;;7.30;99.90;;;;;;5132092;28;20051;-79
2023/12/28 01:20:47;;;;;;;6.38;1.35;;;7.30;99.90;;;;;;5115167;27;20023;-81
2023/12/28 01:23:14;;;;;;;4.40;1.05;;;7.40;99.90;;;;;;5136003;27;20023;-77
2023/12/28 01:25:40;;;;;;;11.23;1.40;;;7.40;99.90;;;;;;5136012;27;20122;-78
2023/12/28 01:28:06;;;;;;;11.65;1.60;;;7.40;99.90;;;;;;5136120;27;20050;-78
2023/12/28 01:30:34;;;;;;;4.60;1.10;;;7.40;99.90;;;;;;5136155;27;20027;-79
2023/12/28 01:32:59;;;;;;;6.03;1.55;;;7.40;99.90;;;;;;5135445;27;20016;-79
2023/12/28 01:35:25;;;;;;;10.85;1.80;;;7.40;99.90;;;;;;5136222;27;20030;-80
2023/12/28 01:37:51;;;;;;;8.07;1.30;;;7.40;99.90;;;;;;5134670;27;20035;-78
2023/12/28 01:40:17;;;;;;;12.45;1.92;;;7.50;99.90;;;;;;5136150;27;20027;-79
2023/12/28 01:42:42;;;;;;;13.32;1.95;;;7.50;99.90;;;;;;5135548;27;20028;-77
2023/12/28 01:45:08;;;;;;;10.32;2.13;;;7.50;99.90;;;;;;5135572;27;20364;-79
2023/12/28 01:47:34;;;;;;;7.20;1.50;;;7.60;99.90;;;;;;5135509;27;20020;-79
2023/12/28 01:50:01;;;;;;;8.75;1.52;;;7.70;99.90;;;;;;5134871;27;20043;-79
2023/12/28 01:52:28;;;;;;;9.25;1.90;;;7.70;99.90;;;;;;5116922;27;20033;-78
2023/12/28 01:54:54;;;;;;;7.70;1.80;;;7.80;99.90;;;;;;5095939;28;20134;-79
2023/12/28 01:57:20;;;;;;;10.02;1.80;;;7.80;99.90;;;;;;5114052;28;20350;-79
2023/12/28 01:59:46;;;;;;;6.93;1.80;;;7.90;99.90;;;;;;5114873;28;20022;-79
2023/12/28 02:02:12;;;;;;;7.72;1.55;;;7.90;99.90;;;;;;5114375;28;20019;-80
2023/12/28 02:04:38;;;;;;;11.20;1.98;;;7.90;99.90;;;;;;5114591;28;20461;-79
2023/12/28 02:07:04;;;;;;;10.75;2.08;;;7.90;99.90;;;;;;5114201;28;20051;-79
2023/12/28 02:09:29;;;;;;;9.75;1.90;;;7.90;99.90;;;;;;5114753;28;20026;-78
2023/12/28 02:11:55;;;;;;;8.52;1.67;;;7.90;99.90;;;;;;5113564;28;20464;-81
2023/12/28 02:14:22;;;;;;;14.70;2.35;;;7.90;99.90;;;;;;5114509;28;20016;-80
2023/12/28 02:17:01;;;;;;;10.95;1.45;;;7.90;99.90;;;;;;5114225;28;20047;-81
2023/12/28 02:19:50;;;;;;;9.00;1.98;;;7.80;99.90;;;;;;5113232;28;20081;-79
2023/12/28 02:22:16;;;;;;;15.68;2.05;;;7.80;99.90;;;;;;5107873;28;20031;-78
2023/12/28 02:25:00;;;;;;;7.07;1.58;;;7.90;99.90;;;;;;5113860;28;20397;-79
2023/12/28 02:27:26;;;;;;;5.75;1.83;;;7.90;99.90;;;;;;5112672;28;20027;-80
2023/12/28 02:29:53;;;;;;;8.38;1.50;;;7.80;99.90;;;;;;5113458;28;20100;-80
2023/12/28 02:32:28;;;;;;;8.05;1.80;;;7.90;99.90;;;;;;5112932;28;20055;-80
2023/12/28 02:34:59;;;;;;;7.38;1.67;;;7.80;99.90;;;;;;5113351;28;20027;-79
2023/12/28 02:37:26;;;;;;;9.52;1.40;;;7.90;99.90;;;;;;5113740;28;20039;-80
2023/12/28 02:39:54;;;;;;;12.43;1.98;;;7.80;99.90;;;;;;5113373;28;20024;-81
2023/12/28 02:42:19;;;;;;;7.80;1.60;;;7.80;99.90;;;;;;5113566;27;20058;-80
2023/12/28 02:44:45;;;;;;;13.00;2.25;;;7.80;99.90;;;;;;5114138;28;20046;-79
2023/12/28 02:47:11;;;;;;;9.10;1.45;;;7.70;99.90;;;;;;5113015;28;20045;-80
2023/12/28 02:49:36;;;;;;;15.00;1.80;;;7.80;99.90;;;;;;5113541;28;20031;-80
2023/12/28 02:52:02;;;;;;;7.68;1.73;;;7.90;99.90;;;;;;5113787;28;20024;-80
2023/12/28 02:54:28;;;;;;;12.77;1.55;;;7.90;99.90;;;;;;5111906;28;20428;-80
2023/12/28 02:56:54;;;;;;;10.85;1.75;;;7.90;99.90;;;;;;5112865;28;20028;-81
2023/12/28 02:59:20;;;;;;;12.27;2.03;;;7.90;99.90;;;;;;5113784;28;20473;-80
2023/12/28 03:01:45;;;;;;;12.93;2.10;;;8.00;99.90;;;;;;5112949;28;20042;-78
2023/12/28 03:04:11;;;;;;;13.68;2.00;;;8.00;99.90;;;;;;5113381;28;20586;-80
2023/12/28 03:06:39;;;;;;;12.90;2.03;;;8.00;99.90;;;;;;5111968;28;20360;-81
2023/12/28 03:09:05;;;;;;;11.32;1.77;;;8.00;99.90;;;;;;5112337;28;20317;-80
2023/12/28 03:11:30;;;;;;;10.77;1.58;;;8.00;99.90;;;;;;5113484;28;20020;-81
2023/12/28 03:13:56;;;;;;;10.05;1.80;;;8.00;99.90;;;;;;5112339;28;20016;-81
2023/12/28 03:16:22;;;;;;;14.90;2.53;;;8.00;99.90;;;;;;5113876;28;20459;-81
2023/12/28 03:18:48;;;;;;;16.00;2.22;;;8.10;99.90;;;;;;5113907;28;20452;-80
2023/12/28 03:21:13;;;;;;;9.65;2.28;;;8.10;99.90;;;;;;5111474;28;20030;-80
2023/12/28 03:23:39;;;;;;;13.13;2.45;;;8.10;99.90;;;;;;5113790;28;20016;-80
2023/12/28 03:26:05;;;;;;;13.70;2.22;;;8.10;99.90;;;;;;5111053;28;20115;-80
2023/12/28 03:28:30;;;;;;;14.57;2.25;;;8.10;99.90;;;;;;5112523;28;20531;-79
2023/12/28 03:30:56;;;;;;;11.20;1.98;;;8.10;99.90;;;;;;5112156;27;20027;-81
2023/12/28 03:33:22;;;;;;;13.30;2.17;;;8.00;99.90;;;;;;5112822;28;20026;-79
2023/12/28 03:35:48;;;;;;;11.82;2.63;;;8.10;99.90;;;;;;5113104;28;20106;-80
2023/12/28 03:38:14;;;;;;;11.50;2.38;;;8.10;99.90;;;;;;5112348;28;20043;-80
2023/12/28 03:40:39;;;;;;;15.40;3.17;;;8.20;99.90;;;;;;5112151;28;20460;-80
2023/12/28 03:43:05;;;;;;;17.25;2.47;;;8.20;99.90;;;;;;5111585;28;20023;-79
2023/12/28 03:45:31;;;;;;;10.98;1.98;;;8.20;99.90;;;;;;5114077;28;20019;-79
2023/12/28 03:47:56;;;;;;;7.80;2.00;;;8.20;99.90;;;;;;5127829;28;20028;-79
2023/12/28 03:50:22;;;;;;;16.48;2.60;;;8.20;99.90;;;;;;5130246;28;20082;-78
2023/12/28 03:52:48;;;;;;;9.98;2.08;;;8.20;99.90;;;;;;5130701;28;20024;-78
2023/12/28 03:55:13;;;;;;;9.45;2.05;;;8.20;99.90;;;;;;5137524;27;20100;-80
2023/12/28 03:57:40;;;;;;;10.88;2.05;;;8.20;99.90;;;;;;5133131;27;20368;-80
2023/12/28 04:00:07;;;;;;;10.07;1.88;;;8.20;99.90;;;;;;5132579;27;20055;-79
2023/12/28 04:02:32;;;;;;;13.38;2.35;;;8.20;99.90;;;;;;5132766;27;20020;-80
2023/12/28 04:04:58;;;;;;;12.60;2.25;;;8.20;99.90;;;;;;5131829;27;20341;-80
2023/12/28 04:07:24;;;;;;;5.32;1.88;;;8.20;99.90;;;;;;5132671;27;20095;-79
2023/12/28 04:09:50;;;;;;;8.20;2.00;;;8.30;99.90;;;;;;5132177;27;20051;-79
2023/12/28 04:12:16;;;;;;;9.75;1.95;;;8.30;99.90;;;;;;5132366;27;20565;-80
2023/12/28 04:14:41;;;;;;;9.13;2.00;;;8.40;99.90;;;;;;5132529;27;20016;-80
2023/12/28 04:17:07;;;;;;;11.30;2.13;;;8.40;99.90;;;;;;5132069;27;20106;-80
2023/12/28 04:19:33;;;;;;;11.88;1.80;;;8.40;99.90;;;;;;5132472;27;20367;-79
2023/12/28 04:21:58;;;;;;;12.65;1.98;;;8.40;99.90;;;;;;5131371;27;20060;-81
2023/12/28 04:24:24;;;;;;;9.65;2.63;;;8.30;99.90;;;;;;5132508;27;20037;-79
2023/12/28 04:26:50;;;;;;;10.88;2.22;;;8.30;99.90;;;;;;5132459;27;20026;-80
2023/12/28 04:29:15;;;;;;;11.43;1.75;;;8.30;99.90;;;;;;5113279;27;20031;-80
2023/12/28 04:31:45;;;;;;;9.25;1.65;;;8.30;99.90;;;;;;5132465;27;20432;-80
2023/12/28 04:34:11;;;;;;;11.55;2.40;;;8.30;99.90;;;;;;5131907;27;20023;-80
2023/12/28 04:36:42;;;;;;;11.85;2.22;;;8.30;99.90;;;;;;5132677;27;20030;-81
2023/12/28 04:39:07;;;;;;;16.65;2.42;;;8.30;99.90;;;;;;5131380;27;20096;-81
2023/12/28 04:41:33;;;;;;;12.35;2.33;;;8.30;99.90;;;;;;5132485;27;20436;-80
2023/12/28 04:43:59;;;;;;;14.48;2.63;;;8.30;99.90;;;;;;5131683;27;20023;-80
2023/12/28 04:46:24;;;;;;;13.90;2.42;;;8.30;99.90;;;;;;5113638;27;20117;-80
2023/12/28 04:48:50;;;;;;;16.73;3.45;;;8.40;99.90;;;;;;5131896;27;20019;-80
2023/12/28 04:51:16;;;;;;;17.70;2.50;;;8.40;99.90;;;;;;5132447;27;20026;-80
2023/12/28 04:53:41;;;;;;;15.15;3.15;;;8.40;99.90;;;;;;5131939;27;20145;-80
2023/12/28 04:56:07;;;;;;;21.40;3.47;;;8.40;99.90;;;;;;5131750;27;20026;-80
2023/12/28 04:58:33;;;;;;;19.90;3.00;;;8.40;99.90;;;;;;5132601;27;20042;-80
2023/12/28 05:01:00;;;;;;;19.42;3.05;;;8.40;99.90;;;;;;5132072;28;20451;-81
2023/12/28 05:03:26;;;;;;;18.98;4.22;;;8.40;99.90;;;;;;5131807;28;20038;-79
2023/12/28 05:05:52;;;;;;;16.77;3.13;;;8.40;99.90;;;;;;5132701;28;20019;-79
2023/12/28 05:08:17;;;;;;;29.70;3.97;;;8.40;99.90;;;;;;5112872;28;20027;-80
2023/12/28 05:10:43;;;;;;;18.00;4.15;;;8.40;99.90;;;;;;5113465;28;20061;-80
2023/12/28 05:13:09;;;;;;;22.42;3.60;;;8.40;99.90;;;;;;5131376;28;20068;-80
2023/12/28 05:15:35;;;;;;;18.98;3.15;;;8.40;99.90;;;;;;5131804;28;20492;-79
2023/12/28 05:18:00;;;;;;;22.23;3.58;;;8.40;99.90;;;;;;5131538;28;20027;-80
2023/12/28 05:20:26;;;;;;;20.10;3.67;;;8.50;99.90;;;;;;5131583;28;20091;-80
2023/12/28 05:22:51;;;;;;;21.52;3.78;;;8.50;99.90;;;;;;5131576;28;20038;-80
2023/12/28 05:25:17;;;;;;;20.40;3.30;;;8.50;99.90;;;;;;5131209;28;20423;-80
2023/12/28 05:27:43;;;;;;;21.73;2.97;;;8.50;99.90;;;;;;5131766;28;20027;-80
2023/12/28 05:30:09;;;;;;;20.75;2.92;;;8.50;99.90;;;;;;5130570;28;20400;-80
2023/12/28 05:32:35;;;;;;;16.85;2.78;;;8.40;99.90;;;;;;5131220;28;20019;-79
2023/12/28 05:35:01;;;;;;;22.75;3.35;;;8.30;99.90;;;;;;5131785;28;20135;-80
2023/12/28 05:37:27;;;;;;;19.85;3.90;;;8.20;99.90;;;;;;5131425;28;20399;-78
2023/12/28 05:39:53;;;;;;;19.85;3.33;;;8.10;99.90;;;;;;5131435;28;20015;-79
2023/12/28 05:42:18;;;;;;;19.00;3.25;;;8.00;99.90;;;;;;5130990;28;20119;-79
2023/12/28 05:44:44;;;;;;;22.33;3.50;;;8.00;99.90;;;;;;5131544;28;20019;-79
2023/12/28 05:47:10;;;;;;;17.52;3.17;;;7.90;99.90;;;;;;5130278;28;20529;-79
2023/12/28 05:49:37;;;;;;;17.23;2.85;;;8.00;99.90;;;;;;5130980;28;20022;-79
2023/12/28 05:52:03;;;;;;;15.80;2.50;;;7.90;99.90;;;;;;5130525;28;20027;-80
2023/12/28 05:54:29;;;;;;;15.82;3.03;;;7.90;99.90;;;;;;5131170;27;20039;-78
2023/12/28 05:56:55;;;;;;;18.38;3.47;;;7.80;99.90;;;;;;5131161;28;20072;-79
2023/12/28 05:59:21;;;;;;;14.65;2.20;;;7.80;99.90;;;;;;5130329;28;20035;-80
2023/12/28 06:01:47;;;;;;;16.48;2.70;;;7.80;99.90;;;;;;5131276;28;20019;-79
2023/12/28 06:04:13;;;;;;;12.70;2.75;;;7.80;99.90;;;;;;5130337;28;20033;-80
2023/12/28 06:06:39;;;;;;;12.52;2.70;;;7.80;99.90;;;;;;5131073;27;20027;-79
2023/12/28 06:09:05;;;;;;;13.35;2.47;;;7.80;99.90;;;;;;5134077;27;20389;-80
2023/12/28 06:11:30;;;;;;;14.27;2.42;;;7.80;99.90;;;;;;5134482;27;20030;-79
2023/12/28 06:13:56;;;;;;;13.50;2.10;;;7.80;99.90;;;;;;5134499;27;20444;-79
2023/12/28 06:16:22;;;;;;;15.10;2.80;;;7.70;99.90;;;;;;5133681;27;20079;-80
2023/12/28 06:18:48;;;;;;;17.30;2.55;;;7.70;99.90;;;;;;5134899;27;20096;-79
2023/12/28 06:21:14;;;;;;;8.40;1.80;;;7.80;99.90;;;;;;5134740;27;20424;-80
2023/12/28 06:23:40;;;;;;;22.30;3.08;;;7.80;99.90;;;;;;5116306;27;20034;-80
2023/12/28 06:26:06;;;;;;;12.20;1.65;;;7.80;99.90;;;;;;5134312;27;20019;-82
2023/12/28 06:28:32;;;;;;;12.15;2.38;;;7.80;99.90;;;;;;5116512;27;20444;-80
2023/12/28 06:31:00;;;;;;;17.05;2.78;;;7.70;99.90;;;;;;5135223;27;20015;-80
2023/12/28 06:33:27;;;;;;;9.48;2.10;;;7.70;99.90;;;;;;5134293;27;20490;-80
2023/12/28 06:35:53;;;;;;;12.13;2.88;;;7.70;99.90;;;;;;5116722;27;20122;-80
2023/12/28 06:38:19;;;;;;;10.15;2.05;;;7.70;99.90;;;;;;5134312;27;20085;-81
2023/12/28 06:40:45;;;;;;;13.57;2.42;;;7.70;99.90;;;;;;5134738;27;20015;-81
2023/12/28 06:43:10;;;;;;;15.98;2.78;;;7.60;99.90;;;;;;5134584;27;20106;-81
2023/12/28 06:45:36;;;;;;;11.13;2.28;;;7.70;99.90;;;;;;5116371;27;20046;-80
2023/12/28 06:48:02;;;;;;;7.80;1.88;;;7.70;99.90;;;;;;5134493;27;20436;-81
2023/12/28 06:50:27;;;;;;;9.50;2.03;;;7.70;99.90;;;;;;5115478;27;20023;-81
2023/12/28 06:52:53;;;;;;;10.73;2.13;;;7.70;99.90;;;;;;5134987;27;20424;-81
2023/12/28 06:55:19;;;;;;;7.97;1.70;;;7.80;99.90;;;;;;5115738;27;20027;-81
2023/12/28 06:57:44;;;;;;;9.93;2.10;;;7.80;99.90;;;;;;5134269;27;20034;-80
2023/12/28 07:00:11;;;;;;;11.40;2.42;;;7.70;99.90;;;;;;5133961;27;20019;-81
2023/12/28 07:02:36;;;;;;;16.00;2.20;;;7.70;99.90;;;;;;5134346;27;20088;-81
2023/12/28 07:05:03;;;;;;;10.00;2.13;;;7.70;99.90;;;;;;5135015;27;20055;-80
2023/12/28 07:07:29;;;;;;;7.57;2.20;;;7.70;99.90;;;;;;5133492;27;20027;-81
2023/12/28 07:09:55;;;;;;;8.18;1.88;;;7.70;99.90;;;;;;5133757;27;20050;-80
2023/12/28 07:12:21;;;;;;;7.60;2.08;;;7.70;99.90;;;;;;5133122;27;20046;-80
2023/12/28 07:14:47;;;;;;;7.45;1.50;;;7.60;99.90;;;;;;5133772;27;20015;-80
2023/12/28 07:17:17;;;;;;;4.63;1.20;;;7.70;99.90;;;;;;5132705;27;20027;-80
2023/12/28 07:19:43;;;;;;;7.57;1.83;;;7.70;99.90;;;;;;5133724;27;20025;-80
2023/12/28 07:22:08;;;;;;;6.03;1.15;;;7.80;99.90;;;;;;5133260;27;20470;-81
2023/12/28 07:24:34;;;;;;;5.03;1.25;;;7.80;99.90;;;;;;5132878;27;20108;-80
2023/12/28 07:27:00;;;;;;;9.20;1.52;;;7.70;99.90;;;;;;5133375;27;20478;-80
2023/12/28 07:29:25;;;;;;;9.23;1.70;;;7.70;99.90;;;;;;5133245;27;20102;-80
2023/12/28 07:31:51;;;;;;;8.82;1.83;;;7.70;99.90;;;;;;5134035;27;20030;-80
2023/12/28 07:34:17;;;;;;;7.85;1.45;;;7.80;99.90;;;;;;5133102;27;20015;-81
2023/12/28 07:36:43;;;;;;;10.20;2.42;;;7.70;99.90;;;;;;5133502;27;20023;-80
2023/12/28 07:39:10;;;;;;;7.55;1.60;;;7.70;99.90;;;;;;5133341;27;20031;-80
2023/12/28 07:41:36;;;;;;;7.30;1.33;;;7.60;99.90;;;;;;5133275;27;20169;-80
2023/12/28 07:44:02;;;;;;;12.70;2.13;;;7.70;99.90;;;;;;5114773;27;20019;-80
2023/12/28 07:46:27;;;;;;;10.70;1.70;;;7.70;99.90;;;;;;5132206;27;20019;-80
2023/12/28 07:48:53;;;;;;;7.05;1.45;;;7.70;99.90;;;;;;5132642;27;20065;-81
2023/12/28 07:51:19;;;;;;;6.10;1.48;;;7.70;99.90;;;;;;5113898;27;20027;-81
2023/12/28 07:53:44;;;;;;;9.07;1.65;;;7.80;99.90;;;;;;5133386;27;20070;-80
2023/12/28 07:56:11;;;;;;;8.43;1.85;;;7.80;99.90;;;;;;5132541;27;20415;-80
2023/12/28 07:58:39;;;;;;;9.98;2.15;;;7.90;99.90;;;;;;5132398;27;20049;-81
2023/12/28 08:01:10;;;;;;;6.82;1.30;;;7.90;99.90;;;;;;5132872;27;20023;-81
2023/12/28 08:03:35;;;;;;;11.30;1.85;;;8.00;99.90;;;;;;5114220;27;20462;-81
2023/12/28 08:06:01;;;;;;;8.82;1.85;;;8.00;99.90;;;;;;5133071;27;20044;-80
2023/12/28 08:08:27;;;;;;;9.80;1.70;;;8.10;99.90;;;;;;5132478;27;20026;-78
2023/12/28 08:10:52;;;;;;;8.57;1.73;;;8.10;99.90;;;;;;5114622;27;20110;-79
2023/12/28 08:13:18;;;;;;;9.63;1.95;;;8.10;99.90;;;;;;5113645;27;20019;-80
2023/12/28 08:15:46;;;;;;;10.73;2.05;;;8.20;99.90;;;;;;5133295;27;20023;-80
2023/12/28 08:18:12;;;;;;;6.35;1.75;;;8.20;99.90;;;;;;5131131;27;20058;-81
2023/12/28 08:20:37;;;;;;;8.88;1.73;;;8.20;99.90;;;;;;5156081;27;20019;-80
2023/12/28 08:23:03;;;;;;;12.20;2.30;;;8.20;99.90;;;;;;5156460;27;20027;-80
2023/12/28 08:25:29;;;;;;;9.50;2.30;;;8.20;99.90;;;;;;5142870;27;20460;-80
2023/12/28 08:27:55;;;;;;;11.30;2.13;;;8.10;99.90;;;;;;5133234;27;20038;-80
2023/12/28 08:30:21;;;;;;;11.75;1.98;;;8.10;99.90;;;;;;5131707;27;20487;-80
2023/12/28 08:32:47;;;;;;;16.48;2.33;;;8.20;99.90;;;;;;5132673;27;20026;-80
2023/12/28 08:35:13;;;;;;;13.70;2.08;;;8.20;99.90;;;;;;5132317;27;20027;-80
2023/12/28 08:37:39;;;;;;;14.82;3.08;;;8.20;99.90;;;;;;5132223;27;20034;-80
2023/12/28 08:40:05;;;;;;;13.63;2.75;;;8.30;99.90;;;;;;5132340;27;20015;-79
2023/12/28 08:42:31;;;;;;;11.32;1.90;;;8.30;99.90;;;;;;5131828;27;20019;-80
2023/12/28 08:44:56;;;;;;;11.45;2.70;;;8.30;99.90;;;;;;5132200;27;20528;-79
2023/12/28 08:47:22;;;;;;;8.40;2.13;;;8.40;99.90;;;;;;5131042;27;20030;-80
2023/12/28 08:49:48;;;;;;;15.10;3.15;;;8.40;99.90;;;;;;5131816;27;20030;-79
2023/12/28 08:52:14;;;;;;;5.78;1.60;;;8.50;99.90;;;;;;5131474;27;20024;-80
2023/12/28 08:54:40;;;;;;;14.10;2.40;;;8.50;99.90;;;;;;5131867;27;20449;-81
2023/12/28 08:57:06;;;;;;;12.57;1.90;;;8.60;99.90;;;;;;5131970;27;20448;-78
2023/12/28 08:59:36;;;;;;;12.13;2.00;;;8.70;99.90;;;;;;5131295;27;20071;-78
2023/12/28 09:02:02;;;;;;;9.45;2.03;;;8.80;99.90;;;;;;5131434;27;20452;-78
2023/12/28 09:04:28;;;;;;;12.07;2.70;;;8.90;99.90;;;;;;5112746;28;20079;-79
2023/12/28 09:06:53;;;;;;;16.40;2.47;;;8.90;99.90;;;;;;5131788;28;20039;-80
2023/12/28 09:09:19;;;;;;;6.80;1.90;;;8.90;99.90;;;;;;5131485;28;20038;-80
2023/12/28 09:11:45;;;;;;;10.13;2.60;;;9.00;99.90;;;;;;5131673;28;20027;-80
2023/12/28 09:14:11;;;;;;;11.23;2.33;;;9.10;99.90;;;;;;5131360;28;20439;-80
2023/12/28 09:16:36;;;;;;;12.45;2.15;;;9.10;99.90;;;;;;5130878;28;20780;-79
2023/12/28 09:19:02;;;;;;;10.57;2.38;;;9.10;99.90;;;;;;5131213;28;20034;-79
2023/12/28 09:21:28;;;;;;;16.00;2.70;;;9.30;99.90;;;;;;5131399;28;20023;-80
2023/12/28 09:23:53;;;;;;;9.00;2.33;;;9.30;99.90;;;;;;5131625;28;20095;-79
2023/12/28 09:26:19;;;;;;;10.55;2.50;;;9.40;99.90;;;;;;5119238;28;20031;-80
2023/12/28 09:28:45;;;;;;;16.25;2.50;;;9.50;99.90;;;;;;5122619;28;20102;-80
2023/12/28 09:31:11;;;;;;;16.35;2.80;;;9.50;99.90;;;;;;5122995;28;20080;-79
2023/12/28 09:33:37;;;;;;;12.40;2.47;;;9.40;99.90;;;;;;5131862;28;20604;-83
2023/12/28 09:36:07;;;;;;;12.52;2.20;;;9.40;99.90;;;;;;5114222;28;20043;-79
2023/12/28 09:38:33;;;;;;;15.05;2.75;;;9.20;99.90;;;;;;5131817;28;20031;-78
2023/12/28 09:41:14;;;;;;;11.25;2.10;;;9.20;99.90;;;;;;5132052;27;20103;-78
2023/12/28 09:43:54;;;;;;;11.82;2.30;;;9.20;99.90;;;;;;5115523;27;20031;-80
2023/12/28 09:46:20;;;;;;;8.90;2.30;;;9.10;99.90;;;;;;5142651;27;20459;-79
2023/12/28 09:48:46;;;;;;;13.55;2.70;;;9.20;99.90;;;;;;5135389;27;20054;-79
2023/12/28 09:51:13;;;;;;;13.38;2.10;;;9.20;99.90;;;;;;5135020;27;20019;-79
2023/12/28 09:53:38;;;;;;;11.65;2.63;;;9.10;99.90;;;;;;5134551;27;20134;-79
2023/12/28 09:56:05;;;;;;;5.90;1.50;;;9.10;99.90;;;;;;5135053;27;20098;-79
2023/12/28 09:58:35;;;;;;;8.70;1.90;;;9.10;99.90;;;;;;5109744;27;20039;-80
2023/12/28 10:01:01;;;;;;;7.65;1.23;;;9.10;99.90;;;;;;5124084;27;20026;-80
2023/12/28 10:03:27;;;;;;;7.47;1.35;;;9.10;99.90;;;;;;5120296;27;20046;-79
2023/12/28 10:05:53;;;;;;;3.83;1.00;;;9.00;99.90;;;;;;5130369;27;20432;-78
2023/12/28 10:08:19;;;;;;;3.63;0.80;;;8.90;99.90;;;;;;5116798;27;20101;-81
2023/12/28 10:10:53;;;;;;;3.15;0.90;;;8.90;99.90;;;;;;5116799;27;20444;-80
2023/12/28 10:13:22;;;;;;;0.75;0.50;;;8.90;99.90;;;;;;5135104;27;20352;-79
2023/12/28 10:15:49;;;;;;;5.60;1.20;;;8.90;99.90;;;;;;5134937;27;20477;-79
2023/12/28 10:18:18;;;;;;;4.32;1.33;;;8.80;99.90;;;;;;5116948;27;20050;-79
2023/12/28 10:20:51;;;;;;;2.42;0.65;;;8.80;99.90;;;;;;5134654;27;20023;-78
2023/12/28 10:23:18;;;;;;;3.92;1.10;;;8.80;99.90;;;;;;5117950;27;20027;-79
2023/12/28 10:25:45;;;;;;;4.60;0.80;;;8.80;99.90;;;;;;5134631;27;20019;-79
2023/12/28 10:28:12;;;;;;;4.10;0.85;;;8.80;99.90;;;;;;5134922;27;20453;-80
2023/12/28 10:30:40;;;;;;;4.03;1.25;;;8.70;99.90;;;;;;5132183;27;20022;-80
2023/12/28 10:33:06;;;;;;;4.00;0.90;;;8.70;99.90;;;;;;5105280;27;20024;-80
2023/12/28 10:35:32;;;;;;;2.92;1.08;;;8.70;99.90;;;;;;5129091;27;20585;-80
2023/12/28 10:38:00;;;;;;;3.92;0.73;;;8.70;99.90;;;;;;5133900;27;20121;-80
2023/12/28 10:40:27;;;;;;;5.10;1.00;;;8.70;99.90;;;;;;5133610;27;20039;-81
2023/12/28 10:43:01;;;;;;;3.45;1.00;;;8.70;99.90;;;;;;5134229;27;20103;-80
2023/12/28 10:45:29;;;;;;;6.10;0.90;;;8.70;99.90;;;;;;5133639;27;20025;-80
2023/12/28 10:47:58;;;;;;;3.65;0.90;;;8.60;99.90;;;;;;5115526;27;20024;-80
2023/12/28 10:50:28;;;;;;;6.60;0.98;;;8.60;99.90;;;;;;5134914;27;20027;-80
2023/12/28 10:53:00;;;;;;;5.45;1.00;;;8.60;99.90;;;;;;5133528;27;20482;-79
2023/12/28 10:55:44;;;;;;;7.40;1.27;;;8.60;99.90;;;;;;5133936;27;20091;-80
2023/12/28 10:58:11;;;;;;;3.50;1.00;;;8.70;99.90;;;;;;5134417;27;20031;-80
2023/12/28 11:01:00;;;;;;;5.82;1.17;;;8.80;99.90;;;;;;5133455;27;20042;-81
2023/12/28 11:03:30;;;;;;;3.83;0.85;;;8.90;99.90;;;;;;5134138;27;20034;-81
2023/12/28 11:05:57;;;;;;;7.93;1.48;;;9.10;99.90;;;;;;5134438;27;20022;-80
2023/12/28 11:08:23;;;;;;;7.03;1.20;;;9.20;99.90;;;;;;5133768;27;20071;-80
2023/12/28 11:10:51;;;;;;;7.85;1.10;;;9.30;99.90;;;;;;5133421;27;20023;-79
2023/12/28 11:13:21;;;;;;;3.70;0.98;;;9.30;99.90;;;;;;5115989;27;20447;-79
2023/12/28 11:15:48;;;;;;;7.85;1.27;;;9.40;99.90;;;;;;5132968;27;20068;-79
2023/12/28 11:18:15;;;;;;;3.15;1.00;;;9.40;99.90;;;;;;5133573;27;20472;-79
2023/12/28 11:20:43;;;;;;;5.03;0.93;;;9.40;99.90;;;;;;5133116;27;20019;-79
2023/12/28 11:23:10;;;;;;;2.95;0.98;;;9.40;99.90;;;;;;5133706;27;20452;-78
2023/12/28 11:25:36;;;;;;;2.90;1.02;;;9.40;99.90;;;;;;5133037;27;20022;-79
2023/12/28 11:28:10;;;;;;;3.38;0.90;;;9.40;99.90;;;;;;5133168;27;20375;-80
2023/12/28 11:30:36;;;;;;;5.35;1.23;;;9.30;99.90;;;;;;5114840;27;20121;-80
2023/12/28 11:33:05;;;;;;;6.47;1.30;;;9.30;99.90;;;;;;5114941;27;20026;-80
2023/12/28 11:35:36;;;;;;;7.63;1.25;;;9.30;99.90;;;;;;5133122;27;20052;-80
2023/12/28 11:38:06;;;;;;;8.75;1.70;;;9.20;99.90;;;;;;5133878;27;20027;-80
2023/12/28 11:40:39;;;;;;;6.78;1.55;;;9.30;99.90;;;;;;5114936;27;20114;-81
2023/12/28 11:43:18;;;;;;;9.25;1.55;;;9.20;99.90;;;;;;5134453;27;20030;-79
2023/12/28 11:45:54;;;;;;;4.38;1.30;;;9.10;99.90;;;;;;5133307;27;20022;-80
2023/12/28 11:48:27;;;;;;;5.22;1.30;;;9.10;99.90;;;;;;5134035;27;20114;-80
2023/12/28 11:50:58;;;;;;;7.50;1.40;;;9.00;99.90;;;;;;5133589;27;20026;-81
2023/12/28 11:53:24;;;;;;;8.35;1.92;;;9.00;99.90;;;;;;5133816;27;20049;-80
2023/12/28 11:55:51;;;;;;;8.43;1.92;;;9.00;99.90;;;;;;5133259;27;20019;-80
2023/12/28 11:58:20;;;;;;;5.72;1.30;;;8.90;99.90;;;;;;5133826;27;20027;-80
2023/12/28 12:00:48;;;;;;;7.57;1.35;;;9.00;99.90;;;;;;5133314;27;20068;-80
2023/12/28 12:03:14;;;;;;;9.65;1.85;;;9.00;99.90;;;;;;5133574;27;20027;-80
2023/12/28 12:05:40;;;;;;;7.53;2.30;;;9.00;99.90;;;;;;5132356;27;20026;-80
2023/12/28 12:08:08;;;;;;;11.00;1.75;;;9.10;99.90;;;;;;5127508;27;20363;-80
2023/12/28 12:10:35;;;;;;;9.63;2.17;;;9.20;99.90;;;;;;5105688;27;20084;-80
2023/12/28 12:13:02;;;;;;;9.45;3.03;;;9.10;99.90;;;;;;5123601;27;20103;-80
2023/12/28 12:15:29;;;;;;;8.30;2.08;;;9.10;99.90;;;;;;5132450;27;20044;-81
2023/12/28 12:17:55;;;;;;;13.85;2.30;;;9.10;99.90;;;;;;5114419;27;20025;-81
2023/12/28 12:20:21;;;;;;;11.65;1.70;;;9.10;99.90;;;;;;5132255;27;20484;-80
2023/12/28 12:22:47;;;;;;;10.02;1.98;;;9.10;99.90;;;;;;5132277;27;20049;-81
2023/12/28 12:25:13;;;;;;;7.72;2.17;;;9.30;99.90;;;;;;5129890;27;20165;-81
2023/12/28 12:27:39;;;;;;;10.88;2.13;;;9.30;99.90;;;;;;5131894;27;20115;-80
2023/12/28 12:30:05;;;;;;;11.63;1.80;;;9.30;99.90;;;;;;5132645;27;20045;-82
2023/12/28 12:32:31;;;;;;;11.32;2.25;;;9.40;99.90;;;;;;5132277;27;20095;-80
2023/12/28 12:34:57;;;;;;;17.35;3.10;;;9.40;99.90;;;;;;5122979;27;20019;-80
2023/12/28 12:37:23;;;;;;;19.67;3.20;;;9.40;99.90;;;;;;5116434;27;20135;-80
2023/12/28 12:39:50;;;;;;;14.75;2.85;;;9.40;99.90;;;;;;5114027;27;20030;-80
2023/12/28 12:42:19;;;;;;;10.07;2.40;;;9.40;99.90;;;;;;5119896;27;20047;-80
2023/12/28 12:44:45;;;;;;;14.55;2.47;;;9.40;99.90;;;;;;5092858;28;20373;-80
2023/12/28 12:47:12;;;;;;;10.18;2.00;;;9.40;99.90;;;;;;5129872;27;20019;-80
2023/12/28 12:49:38;;;;;;;10.60;2.63;;;9.40;99.90;;;;;;5131580;27;20108;-79